createdAt,value
2019-02-22T00:01:07.481Z,48.93
2019-02-22T00:03:36.212Z,42.50
2019-02-22T00:06:04.717Z,44.40
2019-02-22T00:08:33.140Z,45.43
2019-02-22T00:11:01.587Z,45.97
2019-02-22T00:13:30.025Z,44.27
2019-02-22T00:15:58.537Z,44.73
2019-02-22T00:18:27.065Z,47.03
2019-02-22T00:20:55.575Z,45.90
2019-02-22T00:23:24.288Z,45.83
2019-02-22T00:25:52.810Z,47.63
2019-02-22T00:28:21.336Z,48.87
2019-02-22T00:30:49.828Z,46.57
2019-02-22T00:33:18.463Z,48.67
2019-02-22T00:35:47.168Z,47.77
2019-02-22T00:38:15.702Z,48.37
2019-02-22T00:40:44.133Z,43.50
2019-02-22T00:43:12.676Z,41.30
2019-02-22T00:45:41.336Z,40.40
2019-02-22T00:48:09.806Z,43.03
2019-02-22T00:50:38.357Z,40.60
2019-02-22T00:53:06.834Z,45.13
2019-02-22T00:55:35.276Z,40.10
2019-02-22T00:58:03.810Z,45.43
2019-02-22T01:00:32.428Z,43.00
2019-02-22T01:03:01.011Z,41.97
2019-02-22T01:05:29.427Z,38.77
2019-02-22T01:07:58.041Z,42.77
2019-02-22T01:10:31.325Z,41.00
2019-02-22T01:12:56.728Z,45.73
2019-02-22T01:15:25.162Z,41.53
2019-02-22T01:17:53.792Z,42.73
2019-02-22T01:20:22.226Z,46.90
2019-02-22T01:22:50.881Z,46.40
2019-02-22T01:25:19.538Z,47.70
2019-02-22T01:27:47.970Z,49.20
2019-02-22T01:30:16.615Z,44.53
2019-02-22T01:32:45.040Z,45.20
2019-02-22T01:35:13.502Z,46.77
2019-02-22T01:37:42.198Z,48.67
2019-02-22T01:40:11.203Z,46.27
2019-02-22T01:42:39.644Z,46.67
2019-02-22T01:45:08.252Z,45.37
2019-02-22T01:47:36.697Z,46.27
2019-02-22T01:50:06.493Z,50.13
2019-02-22T01:52:34.921Z,52.40
2019-02-22T01:55:03.463Z,47.03
2019-02-22T01:57:31.970Z,49.57
2019-02-22T02:00:00.585Z,50.73
2019-02-22T02:02:29.094Z,55.20
2019-02-22T02:04:57.702Z,47.07
2019-02-22T02:07:26.268Z,46.73
2019-02-22T02:09:54.730Z,51.07
2019-02-22T02:12:23.323Z,52.83
2019-02-22T02:14:51.858Z,46.53
2019-02-22T02:17:20.421Z,50.87
2019-02-22T02:19:48.967Z,45.83
2019-02-22T02:22:17.440Z,47.33
2019-02-22T02:24:46.099Z,47.97
2019-02-22T02:27:14.695Z,43.63
2019-02-22T02:29:43.272Z,46.53
2019-02-22T02:32:11.944Z,45.77
2019-02-22T02:34:40.389Z,46.00
2019-02-22T02:37:08.976Z,43.00
2019-02-22T02:39:37.415Z,46.13
2019-02-22T02:42:06.224Z,44.77
2019-02-22T02:44:34.952Z,42.13
2019-02-22T02:47:03.431Z,43.97
2019-02-22T02:49:31.933Z,46.10
2019-02-22T02:52:00.601Z,47.27
2019-02-22T02:54:29.096Z,42.03
2019-02-22T02:56:57.630Z,41.57
2019-02-22T02:59:26.191Z,39.97
2019-02-22T03:01:54.706Z,43.63
2019-02-22T03:04:23.352Z,44.63
2019-02-22T03:06:53.745Z,41.33
2019-02-22T03:09:22.329Z,42.10
2019-02-22T03:11:50.795Z,43.07
2019-02-22T03:14:19.686Z,48.23
2019-02-22T03:16:48.207Z,46.50
2019-02-22T03:19:16.704Z,43.67
2019-02-22T03:21:45.211Z,46.13
2019-02-22T03:24:13.639Z,43.90
2019-02-22T03:26:42.126Z,47.10
2019-02-22T03:29:10.583Z,42.67
2019-02-22T03:31:39.038Z,46.90
2019-02-22T03:34:07.492Z,45.30
2019-02-22T03:36:36.213Z,46.17
2019-02-22T03:39:06.229Z,46.40
2019-02-22T03:41:34.814Z,48.00
2019-02-22T03:44:03.411Z,46.13
2019-02-22T03:46:31.896Z,48.57
2019-02-22T03:49:00.351Z,45.90
2019-02-22T03:51:29.367Z,48.17
2019-02-22T03:53:57.910Z,52.27
2019-02-22T03:56:26.535Z,42.67
2019-02-22T03:58:55.134Z,47.00
2019-02-22T04:01:23.631Z,52.70
2019-02-22T04:03:52.161Z,51.60
2019-02-22T04:06:20.757Z,52.97
2019-02-22T04:08:49.236Z,48.03
2019-02-22T04:11:17.732Z,57.83
2019-02-22T04:13:46.406Z,56.83
2019-02-22T04:16:14.918Z,52.10
2019-02-22T04:18:43.514Z,53.13
2019-02-22T04:21:11.979Z,55.10
2019-02-22T04:23:40.462Z,57.13
2019-02-22T04:26:08.929Z,62.97
2019-02-22T04:28:37.579Z,55.30
2019-02-22T04:31:06.033Z,59.37
2019-02-22T04:33:34.654Z,54.93
2019-02-22T04:36:03.195Z,52.57
2019-02-22T04:38:31.660Z,52.83
2019-02-22T04:41:00.600Z,59.37
2019-02-22T04:43:29.178Z,58.97
2019-02-22T04:45:57.717Z,55.50
2019-02-22T04:48:26.200Z,54.03
2019-02-22T04:50:54.684Z,56.77
2019-02-22T04:53:23.134Z,51.53
2019-02-22T04:55:51.604Z,57.90
2019-02-22T04:58:20.051Z,54.67
2019-02-22T05:00:48.502Z,53.70
2019-02-22T05:03:16.953Z,55.93
2019-02-22T05:05:45.565Z,59.83
2019-02-22T05:08:14.168Z,60.03
2019-02-22T05:10:42.688Z,52.70
2019-02-22T05:13:11.147Z,57.03
2019-02-22T05:15:39.801Z,51.93
2019-02-22T05:18:08.300Z,50.00
2019-02-22T05:20:36.768Z,57.87
2019-02-22T05:23:07.413Z,55.60
2019-02-22T05:25:35.477Z,51.37
2019-02-22T05:28:04.317Z,59.07
2019-02-22T05:30:32.769Z,55.60
2019-02-22T05:33:01.409Z,62.60
2019-02-22T05:35:29.955Z,58.03
2019-02-22T05:37:58.691Z,59.83
2019-02-22T05:40:27.122Z,58.60
2019-02-22T05:42:55.838Z,66.30
2019-02-22T05:45:24.558Z,64.73
2019-02-22T05:47:53.023Z,66.77
2019-02-22T05:50:21.632Z,71.60
2019-02-22T05:52:50.375Z,66.07
2019-02-22T05:55:18.889Z,72.50
2019-02-22T05:57:47.457Z,89.63
2019-02-22T06:00:16.871Z,72.03
2019-02-22T06:02:45.409Z,69.37
2019-02-22T06:05:14.023Z,68.57
2019-02-22T06:07:42.559Z,67.63
2019-02-22T06:10:11.385Z,64.40
2019-02-22T06:12:39.842Z,69.40
2019-02-22T06:15:09.069Z,67.00
2019-02-22T06:17:37.544Z,64.57
2019-02-22T06:20:11.463Z,65.63
2019-02-22T06:22:39.933Z,62.33
2019-02-22T06:25:08.624Z,64.70
2019-02-22T06:27:37.056Z,66.37
2019-02-22T06:30:07.790Z,68.63
2019-02-22T06:32:36.237Z,66.87
2019-02-22T06:35:05.732Z,61.90
2019-02-22T06:37:34.237Z,65.37
2019-02-22T06:40:02.891Z,62.67
2019-02-22T06:42:31.326Z,64.53
2019-02-22T06:44:59.931Z,61.03
2019-02-22T06:47:28.360Z,63.03
2019-02-22T06:49:56.852Z,64.00
2019-02-22T06:52:25.278Z,57.37
2019-02-22T06:54:53.896Z,58.03
2019-02-22T06:57:22.335Z,55.30
2019-02-22T06:59:50.959Z,54.70
2019-02-22T07:02:19.380Z,56.40
2019-02-22T07:04:48.049Z,55.53
2019-02-22T07:07:16.501Z,55.77
2019-02-22T07:09:44.987Z,57.33
2019-02-22T07:12:20.814Z,50.60
2019-02-22T07:14:49.313Z,52.90
2019-02-22T07:17:17.811Z,54.37
2019-02-22T07:19:46.303Z,53.87
2019-02-22T07:22:14.771Z,53.67
2019-02-22T07:24:43.347Z,50.50
2019-02-22T07:27:11.808Z,53.50
2019-02-22T07:29:40.441Z,53.13
2019-02-22T07:32:08.987Z,54.77
2019-02-22T07:34:37.413Z,52.10
2019-02-22T07:37:05.932Z,53.63
2019-02-22T07:39:34.431Z,54.67
2019-02-22T07:42:03.093Z,53.60
2019-02-22T07:44:31.622Z,54.90
2019-02-22T07:47:00.470Z,53.97
2019-02-22T07:49:28.902Z,55.43
2019-02-22T07:51:57.370Z,56.17
2019-02-22T07:54:25.892Z,52.40
2019-02-22T07:56:54.544Z,51.37
2019-02-22T07:59:23.006Z,54.90
2019-02-22T08:01:51.714Z,53.40
2019-02-22T08:04:20.165Z,54.07
2019-02-22T08:06:48.630Z,56.87
2019-02-22T08:09:17.068Z,54.17
2019-02-22T08:11:47.473Z,53.80
2019-02-22T08:14:15.918Z,55.57
2019-02-22T08:16:44.426Z,52.73
2019-02-22T08:19:12.857Z,55.57
2019-02-22T08:21:42.187Z,55.07
2019-02-22T08:24:10.681Z,55.47
2019-02-22T08:26:39.292Z,51.00
2019-02-22T08:29:07.808Z,51.47
2019-02-22T08:31:36.315Z,53.23
2019-02-22T08:34:05.013Z,53.10
2019-02-22T08:36:33.600Z,51.60
2019-02-22T08:39:02.162Z,58.17
2019-02-22T08:41:30.746Z,52.07
2019-02-22T08:43:59.373Z,52.97
2019-02-22T08:46:27.987Z,52.47
2019-02-22T08:48:56.511Z,48.17
2019-02-22T08:51:25.162Z,45.33
2019-02-22T08:53:53.643Z,45.37
2019-02-22T08:56:22.273Z,47.37
2019-02-22T08:58:50.862Z,48.07
2019-02-22T09:01:19.404Z,44.80
2019-02-22T09:03:50.976Z,47.30
2019-02-22T09:06:18.364Z,43.70
2019-02-22T09:08:47.120Z,46.00
2019-02-22T09:11:15.507Z,47.23
2019-02-22T09:13:44.206Z,44.23
2019-02-22T09:16:12.693Z,44.17
2019-02-22T09:18:41.311Z,44.73
2019-02-22T09:21:09.827Z,46.03
2019-02-22T09:23:38.426Z,42.67
2019-02-22T09:26:07.231Z,43.73
2019-02-22T09:28:35.860Z,40.90
2019-02-22T09:31:04.580Z,40.07
2019-02-22T09:33:33.088Z,46.30
2019-02-22T09:36:01.601Z,41.20
2019-02-22T09:38:30.027Z,42.77
2019-02-22T09:40:58.541Z,42.63
2019-02-22T09:43:26.964Z,41.87
2019-02-22T09:45:55.502Z,40.63
2019-02-22T09:48:23.994Z,38.50
2019-02-22T09:50:52.633Z,36.77
2019-02-22T09:53:21.338Z,39.17
2019-02-22T09:55:49.890Z,39.87
2019-02-22T09:58:18.385Z,40.40
2019-02-22T10:00:46.963Z,41.03
2019-02-22T10:03:15.571Z,41.50
2019-02-22T10:05:44.097Z,40.03
2019-02-22T10:08:12.535Z,40.07
2019-02-22T10:10:42.617Z,45.20
2019-02-22T10:13:11.253Z,42.33
2019-02-22T10:15:39.696Z,44.90
2019-02-22T10:18:08.187Z,43.67
2019-02-22T10:20:36.649Z,46.83
2019-02-22T10:23:05.204Z,46.20
2019-02-22T10:25:33.780Z,47.37
2019-02-22T10:28:02.288Z,51.33
2019-02-22T10:30:30.816Z,57.07
2019-02-22T10:32:59.451Z,62.83
2019-02-22T10:35:27.962Z,54.53
2019-02-22T10:37:56.492Z,56.13
2019-02-22T10:40:25.095Z,65.20
2019-02-22T10:42:53.740Z,62.53
2019-02-22T10:45:22.249Z,67.40
2019-02-22T10:47:50.778Z,57.83
2019-02-22T10:50:19.480Z,61.67
2019-02-22T10:52:48.032Z,63.50
2019-02-22T10:55:16.623Z,63.50
2019-02-22T10:57:45.053Z,61.17
2019-02-22T11:00:15.051Z,57.83
2019-02-22T11:02:43.617Z,54.27
2019-02-22T11:05:12.697Z,50.37
2019-02-22T11:07:41.430Z,54.57
2019-02-22T11:10:11.904Z,47.20
2019-02-22T11:12:40.525Z,52.07
2019-02-22T11:15:11.075Z,51.40
2019-02-22T11:17:39.591Z,51.87
2019-02-22T11:20:09.900Z,49.27
2019-02-22T11:22:38.346Z,50.73
2019-02-22T11:25:12.901Z,47.93
2019-02-22T11:27:41.343Z,47.83
2019-02-22T11:30:14.653Z,47.23
2019-02-22T11:32:43.639Z,52.43
2019-02-22T11:35:12.238Z,51.83
2019-02-22T11:37:40.817Z,52.73
2019-02-22T11:40:10.628Z,53.30
2019-02-22T11:42:39.132Z,51.33
2019-02-22T11:45:09.162Z,50.10
2019-02-22T11:47:37.768Z,47.87
2019-02-22T11:50:11.343Z,46.33
2019-02-22T11:52:39.930Z,49.63
2019-02-22T11:55:09.852Z,48.37
2019-02-22T11:57:38.575Z,50.50
2019-02-22T12:00:14.051Z,55.07
2019-02-22T12:02:45.190Z,54.50
2019-02-22T12:05:12.955Z,51.97
2019-02-22T12:07:41.486Z,50.07
2019-02-22T12:10:10.474Z,49.20
2019-02-22T12:12:38.957Z,45.40
2019-02-22T12:15:10.575Z,45.97
2019-02-22T12:17:39.114Z,43.43
2019-02-22T12:20:09.360Z,41.43
2019-02-22T12:22:37.898Z,44.57
2019-02-22T12:25:13.971Z,45.13
2019-02-22T12:27:42.550Z,46.30
2019-02-22T12:30:13.412Z,41.47
2019-02-22T12:32:41.897Z,44.03
2019-02-22T12:35:10.465Z,40.50
2019-02-22T12:37:38.992Z,39.90
2019-02-22T12:40:09.891Z,39.67
2019-02-22T12:42:38.451Z,40.57
2019-02-22T12:45:09.137Z,41.53
2019-02-22T12:47:37.601Z,39.27
2019-02-22T12:50:08.840Z,36.17
2019-02-22T12:52:37.456Z,39.73
2019-02-22T12:55:08.503Z,36.57
2019-02-22T12:57:37.123Z,35.63
2019-02-22T13:00:14.269Z,34.87
2019-02-22T13:02:42.724Z,32.60
2019-02-22T13:05:14.175Z,38.90
2019-02-22T13:07:42.751Z,36.50
2019-02-22T13:10:11.367Z,35.40
2019-02-22T13:12:39.917Z,34.93
2019-02-22T13:15:14.177Z,33.73
2019-02-22T13:17:41.264Z,36.23
2019-02-22T13:20:10.194Z,32.03
2019-02-22T13:22:38.855Z,33.57
2019-02-22T13:25:09.404Z,35.30
2019-02-22T13:27:37.927Z,34.83
2019-02-22T13:30:12.043Z,34.60
2019-02-22T13:32:40.613Z,32.60
2019-02-22T13:35:11.007Z,29.97
2019-02-22T13:37:39.760Z,31.03
2019-02-22T13:40:11.221Z,33.00
2019-02-22T13:42:39.758Z,33.33
2019-02-22T13:45:10.730Z,30.00
2019-02-22T13:47:39.260Z,32.53
2019-02-22T13:50:13.393Z,33.47
2019-02-22T13:52:42.067Z,36.17
2019-02-22T13:55:10.673Z,37.57
2019-02-22T13:57:39.314Z,38.60
2019-02-22T14:00:13.196Z,39.50
2019-02-22T14:02:41.744Z,42.87
2019-02-22T14:05:10.338Z,40.50
2019-02-22T14:07:38.847Z,39.73
2019-02-22T14:10:07.712Z,42.03
2019-02-22T14:12:36.687Z,37.03
2019-02-22T14:15:07.984Z,37.30
2019-02-22T14:17:36.624Z,35.77
2019-02-22T14:20:07.712Z,35.23
2019-02-22T14:22:36.162Z,28.20
2019-02-22T14:25:05.336Z,29.13
2019-02-22T14:27:33.909Z,27.23
2019-02-22T14:30:02.679Z,28.10
2019-02-22T14:32:31.401Z,28.47
2019-02-22T14:34:59.974Z,27.27
2019-02-22T14:37:28.768Z,29.63
2019-02-22T14:40:03.008Z,27.67
2019-02-22T14:42:27.573Z,27.53
2019-02-22T14:44:56.091Z,25.40
2019-02-22T14:47:24.627Z,26.67
2019-02-22T14:49:53.145Z,24.50
2019-02-22T14:52:21.738Z,25.20
2019-02-22T14:54:50.255Z,23.37
2019-02-22T14:57:18.882Z,24.80
2019-02-22T14:59:47.362Z,23.73
2019-02-22T15:02:15.930Z,19.13
2019-02-22T15:04:44.423Z,15.87
2019-02-22T15:07:13.028Z,14.30
2019-02-22T15:09:41.505Z,14.30
2019-02-22T15:12:11.956Z,13.13
2019-02-22T15:14:40.532Z,12.87
2019-02-22T15:17:28.537Z,13.73
2019-02-22T15:19:56.983Z,15.73
2019-02-22T15:22:25.692Z,14.00
2019-02-22T15:24:54.274Z,11.43
2019-02-22T15:27:22.785Z,11.77
2019-02-22T15:29:51.282Z,11.53
2019-02-22T15:32:20.033Z,12.67
2019-02-22T15:34:48.678Z,13.17
2019-02-22T15:37:17.150Z,13.20
2019-02-22T15:39:45.587Z,26.37
2019-02-22T15:42:14.038Z,149.33
2019-02-22T15:44:42.563Z,18.83
2019-02-22T15:47:12.173Z,12.03
2019-02-22T15:49:40.665Z,15.30
2019-02-22T15:52:10.324Z,11.70
2019-02-22T15:54:39.092Z,11.13
2019-02-22T15:57:07.689Z,11.40
2019-02-22T15:59:36.217Z,12.03
2019-02-22T16:02:04.804Z,10.97
2019-02-22T16:04:35.122Z,12.43
2019-02-22T16:07:04.191Z,13.10
2019-02-22T16:09:32.716Z,13.57
2019-02-22T16:12:01.156Z,14.93
2019-02-22T16:14:29.720Z,12.70
2019-02-22T16:16:58.326Z,12.97
2019-02-22T16:19:26.805Z,13.63
2019-02-22T16:21:55.407Z,15.80
2019-02-22T16:24:23.925Z,12.87
2019-02-22T16:26:54.021Z,13.57
2019-02-22T16:29:22.532Z,13.77
2019-02-22T16:31:51.010Z,16.23
2019-02-22T16:34:19.541Z,16.07
2019-02-22T16:36:48.062Z,13.57
2019-02-22T16:39:16.722Z,15.57
2019-02-22T16:41:45.321Z,15.03
2019-02-22T16:44:13.767Z,16.13
2019-02-22T16:46:42.296Z,16.03
2019-02-22T16:49:10.721Z,17.20
2019-02-22T16:51:39.263Z,19.20
2019-02-22T16:54:07.870Z,17.07
2019-02-22T16:56:36.331Z,15.07
2019-02-22T16:59:04.839Z,20.10
2019-02-22T17:01:33.365Z,16.67
2019-02-22T17:04:01.915Z,15.70
2019-02-22T17:06:30.495Z,18.57
2019-02-22T17:08:58.931Z,19.63
2019-02-22T17:11:27.626Z,17.97
2019-02-22T17:13:56.074Z,21.83
2019-02-22T17:16:24.506Z,18.13
2019-02-22T17:18:53.143Z,17.97
2019-02-22T17:21:21.666Z,16.40
2019-02-22T17:23:50.121Z,18.00
2019-02-22T17:26:18.645Z,16.67
2019-02-22T17:28:47.120Z,17.50
2019-02-22T17:31:15.810Z,19.27
2019-02-22T17:33:44.261Z,16.47
2019-02-22T17:36:12.754Z,20.87
2019-02-22T17:38:41.228Z,20.50
2019-02-22T17:41:09.654Z,18.60
2019-02-22T17:43:38.124Z,19.60
2019-02-22T17:46:06.719Z,20.30
2019-02-22T17:48:35.461Z,19.77
2019-02-22T17:51:04.140Z,21.20
2019-02-22T17:53:32.668Z,19.17
2019-02-22T17:56:01.106Z,19.83
2019-02-22T17:58:29.972Z,19.50
2019-02-22T18:00:58.792Z,20.87
2019-02-22T18:03:27.276Z,20.40
2019-02-22T18:05:55.947Z,20.23
2019-02-22T18:08:24.668Z,23.47
2019-02-22T18:10:53.199Z,22.03
2019-02-22T18:13:21.785Z,21.03
2019-02-22T18:15:50.593Z,21.50
2019-02-22T18:18:19.204Z,23.03
2019-02-22T18:20:47.854Z,24.30
2019-02-22T18:23:16.361Z,23.47
2019-02-22T18:25:45.013Z,23.40
2019-02-22T18:28:13.649Z,22.87
2019-02-22T18:30:42.173Z,24.93
2019-02-22T18:33:10.815Z,23.20
2019-02-22T18:35:39.242Z,25.17
2019-02-22T18:38:07.821Z,25.47
2019-02-22T18:40:36.361Z,24.73
2019-02-22T18:43:04.879Z,24.80
2019-02-22T18:45:33.451Z,23.93
2019-02-22T18:48:02.017Z,24.40
2019-02-22T18:50:30.641Z,24.87
2019-02-22T18:52:59.230Z,24.40
2019-02-22T18:55:28.027Z,21.87
2019-02-22T18:57:56.462Z,23.07
2019-02-22T19:00:25.002Z,22.33
2019-02-22T19:02:53.433Z,24.50
2019-02-22T19:05:21.977Z,20.40
2019-02-22T19:07:50.488Z,22.40
2019-02-22T19:10:19.827Z,19.10
2019-02-22T19:12:48.344Z,20.17
2019-02-22T19:15:16.857Z,21.07
2019-02-22T19:17:45.595Z,18.73
2019-02-22T19:20:19.454Z,19.33
2019-02-22T19:22:48.110Z,19.70
2019-02-22T19:25:16.547Z,19.63
2019-02-22T19:27:46.524Z,20.13
2019-02-22T19:30:18.003Z,17.03
2019-02-22T19:32:46.977Z,19.23
2019-02-22T19:35:15.569Z,23.60
2019-02-22T19:37:44.314Z,22.43
2019-02-22T19:40:15.193Z,19.97
2019-02-22T19:42:43.963Z,20.37
2019-02-22T19:45:12.560Z,20.03
2019-02-22T19:47:42.360Z,21.33
2019-02-22T19:50:12.791Z,22.07
2019-02-22T19:52:41.412Z,23.67
2019-02-22T19:55:12.201Z,23.53
2019-02-22T19:57:40.848Z,26.63
2019-02-22T20:00:19.892Z,20.73
2019-02-22T20:02:48.589Z,22.47
2019-02-22T20:05:17.132Z,19.70
2019-02-22T20:07:45.784Z,21.07
2019-02-22T20:10:18.439Z,21.03
2019-02-22T20:12:47.270Z,20.00
2019-02-22T20:15:30.462Z,21.97
2019-02-22T20:17:55.258Z,19.63
2019-02-22T20:22:10.935Z,21.37
2019-02-22T20:23:13.799Z,21.07
2019-02-22T20:25:55.099Z,21.60
2019-02-22T20:28:37.021Z,19.70
2019-02-22T20:31:06.794Z,21.53
2019-02-22T20:33:51.825Z,22.40
2019-02-22T20:36:28.421Z,22.63
2019-02-22T20:38:51.047Z,22.27
2019-02-22T20:41:35.651Z,22.20
2019-02-22T20:44:10.493Z,24.27
2019-02-22T20:46:49.690Z,21.33
2019-02-22T20:49:21.518Z,20.87
2019-02-22T20:52:04.319Z,22.47
2019-02-22T20:54:47.983Z,20.00
2019-02-22T20:57:23.319Z,21.80
2019-02-22T21:00:08.892Z,22.03
2019-02-22T21:02:37.393Z,23.97
2019-02-22T21:05:37.695Z,21.40
2019-02-22T21:08:06.735Z,24.10
2019-02-22T21:10:38.352Z,26.30
2019-02-22T21:13:06.857Z,24.23
2019-02-22T21:15:35.496Z,24.20
2019-02-22T21:18:03.933Z,26.50
2019-02-22T21:20:32.513Z,27.20
2019-02-22T21:23:01.104Z,27.83
2019-02-22T21:25:29.820Z,27.07
2019-02-22T21:27:58.293Z,24.50
2019-02-22T21:30:26.860Z,26.87
2019-02-22T21:32:55.454Z,26.40
2019-02-22T21:35:25.447Z,28.20
2019-02-22T21:37:54.081Z,26.00
2019-02-22T21:40:22.641Z,25.27
2019-02-22T21:42:51.184Z,27.67
2019-02-22T21:45:19.693Z,26.13
2019-02-22T21:47:54.725Z,26.67
2019-02-22T21:50:18.816Z,28.73
2019-02-22T21:52:47.430Z,28.27
2019-02-22T21:55:16.398Z,28.70
2019-02-22T21:57:44.896Z,28.73
2019-02-22T22:00:21.988Z,30.87
2019-02-22T22:02:46.193Z,32.70
2019-02-22T22:05:14.713Z,31.60
2019-02-22T22:07:43.267Z,30.33
2019-02-22T22:10:11.938Z,34.17
2019-02-22T22:12:40.549Z,32.07
2019-02-22T22:15:13.678Z,32.60
2019-02-22T22:17:42.634Z,35.63
2019-02-22T22:20:11.435Z,36.37
2019-02-22T22:22:40.221Z,33.17
2019-02-22T22:25:10.619Z,37.63
2019-02-22T22:27:39.231Z,34.33
2019-02-22T22:30:15.235Z,34.53
2019-02-22T22:32:43.817Z,37.33
2019-02-22T22:35:14.705Z,34.77
2019-02-22T22:37:43.198Z,34.73
2019-02-22T22:40:11.982Z,34.10
2019-02-22T22:42:40.580Z,37.73
2019-02-22T22:45:17.022Z,36.57
2019-02-22T22:47:45.460Z,38.03
2019-02-22T22:50:15.240Z,38.07
2019-02-22T22:52:45.284Z,35.97
2019-02-22T22:55:13.923Z,41.17
2019-02-22T22:57:42.528Z,39.10
2019-02-22T23:00:35.755Z,36.00
2019-02-22T23:03:04.343Z,37.87
2019-02-22T23:05:34.296Z,37.67
2019-02-22T23:08:02.905Z,36.37
2019-02-22T23:10:31.420Z,40.13
2019-02-22T23:12:59.869Z,37.80
2019-02-22T23:15:28.624Z,41.97
2019-02-22T23:17:57.128Z,39.77
2019-02-22T23:20:25.662Z,35.67
2019-02-22T23:22:54.125Z,40.90
2019-02-22T23:25:22.644Z,36.93
2019-02-22T23:27:51.147Z,41.43
2019-02-22T23:30:19.665Z,40.23
2019-02-22T23:32:48.086Z,38.57
2019-02-22T23:35:16.655Z,44.27
2019-02-22T23:37:45.283Z,35.17
2019-02-22T23:40:13.865Z,37.67
2019-02-22T23:42:42.284Z,39.10
2019-02-22T23:45:10.883Z,38.57
2019-02-22T23:47:39.575Z,35.77
2019-02-22T23:50:08.605Z,36.17
2019-02-22T23:52:37.199Z,36.67
2019-02-22T23:55:06.175Z,37.23
2019-02-22T23:57:34.707Z,34.93
